createdAt,value
2022-12-10T00:01:32.923Z,99.90
2022-12-10T00:04:00.379Z,99.90
2022-12-10T00:06:30.338Z,99.90
2022-12-10T00:08:58.298Z,99.90
2022-12-10T00:11:25.700Z,99.90
2022-12-10T00:13:53.877Z,99.90
2022-12-10T00:16:23.354Z,99.90
2022-12-10T00:18:51.579Z,99.90
2022-12-10T00:21:29.409Z,99.90
2022-12-10T00:23:57.331Z,99.90
2022-12-10T00:26:33.481Z,99.90
2022-12-10T00:29:01.338Z,99.90
2022-12-10T00:31:31.418Z,99.90
2022-12-10T00:34:00.008Z,99.90
2022-12-10T00:36:32.883Z,99.90
2022-12-10T00:39:01.296Z,99.90
2022-12-10T00:41:28.447Z,99.90
2022-12-10T00:43:55.487Z,99.90
2022-12-10T00:46:22.611Z,99.90
2022-12-10T00:48:49.767Z,99.90
2022-12-10T00:51:22.807Z,99.90
2022-12-10T00:53:52.110Z,99.90
2022-12-10T00:56:24.986Z,99.90
2022-12-10T00:58:52.496Z,99.90
2022-12-10T01:01:34.816Z,99.90
2022-12-10T01:04:11.133Z,99.90
2022-12-10T01:06:49.097Z,99.90
2022-12-10T01:09:19.578Z,99.90
2022-12-10T01:11:47.646Z,99.90
2022-12-10T01:14:20.124Z,99.90
2022-12-10T01:16:48.173Z,99.90
2022-12-10T01:19:15.527Z,99.90
2022-12-10T01:21:42.422Z,99.90
2022-12-10T01:24:10.058Z,99.90
2022-12-10T01:26:37.544Z,99.90
2022-12-10T01:29:05.672Z,99.90
2022-12-10T01:31:37.861Z,99.90
2022-12-10T01:34:06.656Z,99.90
2022-12-10T01:36:42.562Z,99.90
2022-12-10T01:39:12.720Z,99.90
2022-12-10T01:41:46.002Z,99.90
2022-12-10T01:44:12.892Z,99.90
2022-12-10T01:46:46.584Z,99.90
2022-12-10T01:49:19.980Z,99.90
2022-12-10T01:51:50.934Z,99.90
2022-12-10T01:54:23.861Z,99.90
2022-12-10T01:56:59.499Z,99.90
2022-12-10T01:59:27.516Z,99.90
2022-12-10T02:02:26.203Z,99.90
2022-12-10T02:05:14.077Z,99.90
2022-12-10T02:07:48.111Z,99.90
2022-12-10T02:10:20.931Z,99.90
2022-12-10T02:12:57.303Z,99.90
2022-12-10T02:15:28.539Z,99.90
2022-12-10T02:18:16.533Z,99.90
2022-12-10T02:20:51.562Z,99.90
2022-12-10T02:23:26.136Z,99.90
2022-12-10T02:26:02.994Z,99.90
2022-12-10T02:28:51.064Z,99.90
2022-12-10T02:31:23.838Z,99.90
2022-12-10T02:33:56.517Z,99.90
2022-12-10T02:36:26.788Z,99.90
2022-12-10T02:38:55.215Z,99.90
2022-12-10T02:41:30.095Z,99.90
2022-12-10T02:43:59.759Z,99.90
2022-12-10T02:46:29.575Z,99.90
2022-12-10T02:48:58.411Z,99.90
2022-12-10T02:51:25.381Z,99.90
2022-12-10T02:54:07.873Z,99.90
2022-12-10T02:56:47.443Z,99.90
2022-12-10T02:59:30.231Z,99.90
2022-12-10T03:02:03.669Z,99.90
2022-12-10T03:04:46.829Z,99.90
2022-12-10T03:07:24.128Z,99.90
2022-12-10T03:10:02.194Z,99.90
2022-12-10T03:12:49.887Z,99.90
2022-12-10T03:15:19.348Z,99.90
2022-12-10T03:17:47.968Z,99.90
2022-12-10T03:20:16.687Z,99.90
2022-12-10T03:22:47.517Z,99.90
2022-12-10T03:25:23.945Z,99.90
2022-12-10T03:27:55.084Z,99.90
2022-12-10T03:30:22.903Z,99.90
2022-12-10T03:32:50.978Z,99.90
2022-12-10T03:35:21.255Z,99.90
2022-12-10T03:37:50.828Z,99.90
2022-12-10T03:40:21.181Z,99.90
2022-12-10T03:42:48.269Z,99.90
2022-12-10T03:45:16.155Z,99.90
2022-12-10T03:47:43.501Z,99.90
2022-12-10T03:50:11.588Z,99.90
2022-12-10T03:52:39.610Z,99.90
2022-12-10T03:55:07.806Z,99.90
2022-12-10T03:57:35.318Z,99.90
2022-12-10T04:00:03.972Z,99.90
2022-12-10T04:02:31.044Z,99.90
2022-12-10T04:04:58.365Z,99.90
2022-12-10T04:07:25.320Z,99.90
2022-12-10T04:09:52.215Z,99.90
2022-12-10T04:12:19.738Z,99.90
2022-12-10T04:15:05.397Z,99.90
2022-12-10T04:17:35.334Z,99.90
2022-12-10T04:20:02.304Z,99.90
2022-12-10T04:22:47.912Z,99.90
2022-12-10T04:25:33.642Z,99.90
2022-12-10T04:28:00.665Z,99.90
2022-12-10T04:30:27.519Z,99.90
2022-12-10T04:32:54.552Z,99.90
2022-12-10T04:35:21.923Z,99.90
2022-12-10T04:37:49.259Z,99.90
2022-12-10T04:40:16.275Z,99.90
2022-12-10T04:42:43.251Z,99.90
2022-12-10T04:45:10.621Z,99.90
2022-12-10T04:47:37.888Z,99.90
2022-12-10T04:50:05.233Z,99.90
2022-12-10T04:52:32.167Z,99.90
2022-12-10T04:54:59.066Z,99.90
2022-12-10T04:57:25.984Z,99.90
2022-12-10T04:59:52.903Z,99.90
2022-12-10T05:02:20.150Z,99.90
2022-12-10T05:04:49.169Z,99.90
2022-12-10T05:07:16.208Z,99.90
2022-12-10T05:09:43.113Z,99.90
2022-12-10T05:12:10.081Z,99.90
2022-12-10T05:14:37.373Z,99.90
2022-12-10T05:17:04.353Z,99.90
2022-12-10T05:19:31.339Z,99.90
2022-12-10T05:22:18.355Z,99.90
2022-12-10T05:24:45.249Z,99.90
2022-12-10T05:27:12.182Z,99.90
2022-12-10T05:29:39.108Z,99.90
2022-12-10T05:32:06.547Z,99.90
2022-12-10T05:34:33.484Z,99.90
2022-12-10T05:37:00.415Z,99.90
2022-12-10T05:39:27.289Z,99.90
2022-12-10T05:41:54.773Z,99.90
2022-12-10T05:44:21.782Z,99.90
2022-12-10T05:46:48.813Z,99.90
2022-12-10T05:49:15.717Z,99.90
2022-12-10T05:51:42.638Z,99.90
2022-12-10T05:54:11.056Z,99.90
2022-12-10T05:56:38.620Z,99.90
2022-12-10T05:59:11.245Z,99.90
2022-12-10T06:01:41.663Z,99.90
2022-12-10T06:04:08.552Z,99.90
2022-12-10T06:06:38.439Z,99.90
2022-12-10T06:09:07.396Z,99.90
2022-12-10T06:11:34.347Z,99.90
2022-12-10T06:14:02.744Z,99.90
2022-12-10T06:16:30.341Z,99.90
2022-12-10T06:18:58.605Z,99.90
2022-12-10T06:21:25.590Z,99.90
2022-12-10T06:23:53.556Z,99.90
2022-12-10T06:26:25.959Z,99.90
2022-12-10T06:28:53.888Z,99.90
2022-12-10T06:31:21.352Z,99.90
2022-12-10T06:33:48.563Z,99.90
2022-12-10T06:36:17.162Z,99.90
2022-12-10T06:38:44.154Z,99.90
2022-12-10T06:41:13.442Z,99.90
2022-12-10T06:43:40.722Z,99.90
2022-12-10T06:46:12.575Z,56.60
2022-12-10T06:48:40.341Z,1.00
2022-12-10T06:51:08.028Z,99.90
2022-12-10T06:53:36.805Z,1.00
2022-12-10T06:56:05.022Z,99.90
2022-12-10T06:58:33.832Z,99.90
2022-12-10T07:01:13.280Z,1.00
2022-12-10T07:03:40.473Z,1.00
2022-12-10T07:06:10.304Z,1.00
2022-12-10T07:08:38.007Z,99.90
2022-12-10T07:11:06.520Z,1.00
2022-12-10T07:13:33.424Z,1.00
2022-12-10T07:16:00.712Z,99.90
2022-12-10T07:18:28.912Z,99.90
2022-12-10T07:20:55.947Z,1.00
2022-12-10T07:23:23.106Z,1.00
2022-12-10T07:25:50.009Z,1.00
2022-12-10T07:28:16.865Z,1.00
2022-12-10T07:30:44.398Z,1.00
2022-12-10T07:33:11.245Z,1.00
2022-12-10T07:35:47.368Z,1.00
2022-12-10T07:38:15.847Z,99.90
2022-12-10T07:40:42.691Z,99.90
2022-12-10T07:43:09.563Z,99.90
2022-12-10T07:45:36.457Z,99.90
2022-12-10T07:48:03.397Z,99.90
2022-12-10T07:50:30.429Z,99.90
2022-12-10T07:52:58.662Z,99.90
2022-12-10T07:55:25.624Z,13.10
2022-12-10T07:57:52.548Z,1.00
2022-12-10T08:00:19.723Z,1.00
2022-12-10T08:02:46.658Z,1.00
2022-12-10T08:05:13.525Z,99.90
2022-12-10T08:07:40.545Z,99.90
2022-12-10T08:10:08.108Z,1.00
2022-12-10T08:12:35.156Z,1.00
2022-12-10T08:15:03.599Z,1.00
2022-12-10T08:17:33.906Z,1.00
2022-12-10T08:20:00.758Z,1.00
2022-12-10T08:22:27.703Z,99.90
2022-12-10T08:24:54.564Z,99.90
2022-12-10T08:27:22.467Z,99.90
2022-12-10T08:29:49.984Z,99.90
2022-12-10T08:32:16.820Z,1.00
2022-12-10T08:34:43.666Z,1.00
2022-12-10T08:37:12.401Z,1.00
2022-12-10T08:39:39.564Z,1.00
2022-12-10T08:42:06.402Z,1.00
2022-12-10T08:44:33.295Z,1.00
2022-12-10T08:47:01.000Z,1.00
2022-12-10T08:49:27.949Z,1.00
2022-12-10T08:51:56.166Z,1.00
2022-12-10T08:54:23.034Z,1.00
2022-12-10T08:56:50.042Z,1.00
2022-12-10T08:59:16.942Z,1.00
2022-12-10T09:01:43.811Z,1.00
2022-12-10T09:04:10.733Z,1.00
2022-12-10T09:06:41.306Z,1.00
2022-12-10T09:09:08.259Z,1.00
2022-12-10T09:11:35.886Z,1.00
2022-12-10T09:14:03.731Z,1.00
2022-12-10T09:16:34.768Z,1.00
2022-12-10T09:19:02.544Z,99.00
2022-12-10T09:21:31.463Z,99.90
2022-12-10T09:23:59.356Z,99.90
2022-12-10T09:26:27.034Z,99.90
2022-12-10T09:28:55.660Z,1.00
2022-12-10T09:31:23.629Z,1.00
2022-12-10T09:33:52.210Z,99.90
2022-12-10T09:36:20.294Z,99.90
2022-12-10T09:38:48.154Z,1.00
2022-12-10T09:41:49.410Z,26.90
2022-12-10T09:44:30.019Z,99.90
2022-12-10T09:47:01.028Z,1.00
2022-12-10T09:49:53.882Z,1.00
2022-12-10T09:52:25.163Z,99.90
2022-12-10T09:54:58.136Z,1.00
2022-12-10T09:57:44.219Z,99.90
2022-12-10T10:00:20.490Z,99.90
2022-12-10T10:02:47.823Z,1.00
2022-12-10T10:05:34.142Z,1.00
2022-12-10T10:08:33.735Z,1.00
2022-12-10T10:11:04.029Z,5.90
2022-12-10T10:13:42.479Z,1.00
2022-12-10T10:16:30.121Z,99.90
2022-12-10T10:19:07.591Z,1.00
2022-12-10T10:21:37.909Z,1.00
2022-12-10T10:24:11.840Z,22.20
2022-12-10T10:26:39.602Z,55.10
2022-12-10T10:29:09.435Z,99.90
2022-12-10T10:31:40.752Z,99.90
2022-12-10T10:34:19.667Z,99.90
2022-12-10T10:36:47.288Z,99.90
2022-12-10T10:39:17.176Z,99.90
2022-12-10T10:41:45.056Z,99.90
2022-12-10T10:44:24.048Z,1.00
2022-12-10T10:46:55.708Z,1.00
2022-12-10T10:49:28.274Z,53.30
2022-12-10T10:52:01.939Z,99.90
2022-12-10T10:54:32.718Z,99.90
2022-12-10T10:57:02.383Z,99.90
2022-12-10T10:59:36.448Z,99.90
2022-12-10T11:02:18.806Z,99.90
2022-12-10T11:04:52.132Z,99.90
2022-12-10T11:07:31.355Z,99.90
2022-12-10T11:10:01.728Z,99.90
2022-12-10T11:12:38.110Z,99.90
2022-12-10T11:15:23.405Z,99.90
2022-12-10T11:17:54.926Z,99.90
2022-12-10T11:20:31.515Z,1.00
2022-12-10T11:23:08.774Z,1.00
2022-12-10T11:25:54.287Z,1.00
2022-12-10T11:28:46.232Z,1.00
2022-12-10T11:31:26.206Z,1.00
2022-12-10T11:34:05.308Z,99.90
2022-12-10T11:36:38.069Z,99.90
2022-12-10T11:40:06.593Z,99.90
2022-12-10T11:42:36.294Z,1.00
2022-12-10T11:45:33.613Z,1.00
2022-12-10T11:48:19.157Z,1.00
2022-12-10T11:50:54.318Z,28.00
2022-12-10T11:53:24.024Z,99.90
2022-12-10T11:56:29.975Z,59.90
2022-12-10T11:59:11.861Z,1.00
2022-12-10T12:01:53.979Z,1.00
2022-12-10T12:04:58.794Z,99.90
2022-12-10T12:07:51.608Z,99.90
2022-12-10T12:10:57.366Z,99.90
2022-12-10T12:13:29.390Z,99.90
2022-12-10T12:16:02.645Z,99.90
2022-12-10T12:18:50.322Z,1.00
2022-12-10T12:21:18.574Z,99.90
2022-12-10T12:24:13.176Z,1.00
2022-12-10T12:26:48.265Z,46.40
2022-12-10T12:29:35.649Z,99.90
2022-12-10T12:32:21.226Z,99.90
2022-12-10T12:35:24.995Z,1.00
2022-12-10T12:38:08.220Z,1.00
2022-12-10T12:40:51.875Z,1.00
2022-12-10T12:43:38.850Z,1.00
2022-12-10T12:46:13.715Z,1.00
2022-12-10T12:48:52.225Z,1.00
2022-12-10T12:51:28.467Z,1.00
2022-12-10T12:53:55.268Z,1.00
2022-12-10T12:56:34.023Z,1.00
2022-12-10T12:59:20.848Z,99.90
2022-12-10T13:01:59.485Z,99.90
2022-12-10T13:04:27.976Z,99.90
2022-12-10T13:07:34.409Z,94.30
2022-12-10T13:10:07.955Z,18.50
2022-12-10T13:12:47.040Z,1.00
2022-12-10T13:15:19.639Z,45.40
2022-12-10T13:18:17.382Z,99.90
2022-12-10T13:20:50.583Z,99.90
2022-12-10T13:23:26.684Z,99.90
2022-12-10T13:25:55.809Z,99.90
2022-12-10T13:28:49.541Z,99.90
2022-12-10T13:31:16.515Z,99.90
2022-12-10T13:33:50.620Z,99.90
2022-12-10T13:36:37.730Z,98.40
2022-12-10T13:39:04.620Z,1.00
2022-12-10T13:41:58.433Z,1.00
2022-12-10T13:44:48.730Z,1.00
2022-12-10T13:47:36.113Z,1.00
2022-12-10T13:50:07.410Z,1.00
2022-12-10T13:52:43.092Z,32.60
2022-12-10T13:55:22.463Z,43.60
2022-12-10T13:58:04.142Z,99.90
2022-12-10T14:00:41.424Z,99.90
2022-12-10T14:03:25.354Z,99.90
2022-12-10T14:05:58.266Z,99.90
2022-12-10T14:08:30.909Z,99.90
2022-12-10T14:10:59.842Z,99.90
2022-12-10T14:13:47.794Z,99.90
2022-12-10T14:16:16.925Z,99.90
2022-12-10T14:18:46.570Z,99.90
2022-12-10T14:21:16.636Z,99.90
2022-12-10T14:23:53.103Z,99.90
2022-12-10T14:26:31.834Z,99.90
2022-12-10T14:29:25.574Z,99.90
2022-12-10T14:31:56.329Z,99.90
2022-12-10T14:34:27.597Z,99.90
2022-12-10T14:36:57.862Z,99.90
2022-12-10T14:39:31.421Z,99.90
2022-12-10T14:42:04.790Z,99.90
2022-12-10T14:44:34.931Z,99.90
2022-12-10T14:47:19.848Z,99.90
2022-12-10T14:49:49.959Z,99.90
2022-12-10T14:52:25.564Z,99.90
2022-12-10T14:54:52.999Z,99.90
2022-12-10T14:57:22.148Z,99.90
2022-12-10T14:59:59.128Z,99.90
2022-12-10T15:02:30.606Z,1.00
2022-12-10T15:04:58.690Z,1.00
2022-12-10T15:07:31.343Z,1.00
2022-12-10T15:09:59.504Z,1.00
2022-12-10T15:12:26.307Z,1.00
2022-12-10T15:14:57.503Z,1.00
2022-12-10T15:17:43.091Z,1.00
2022-12-10T15:20:25.818Z,1.00
2022-12-10T15:22:53.432Z,1.00
2022-12-10T15:25:29.335Z,1.00
2022-12-10T15:28:02.312Z,1.00
2022-12-10T15:30:39.447Z,1.00
2022-12-10T15:33:27.748Z,1.00
2022-12-10T15:36:01.689Z,1.00
2022-12-10T15:38:29.001Z,1.00
2022-12-10T15:41:33.171Z,15.70
2022-12-10T15:44:07.165Z,95.00
2022-12-10T15:46:34.185Z,99.90
2022-12-10T15:49:01.086Z,99.90
2022-12-10T15:51:28.057Z,99.90
2022-12-10T15:53:55.217Z,99.90
2022-12-10T15:56:22.136Z,99.90
2022-12-10T15:58:49.570Z,1.00
2022-12-10T16:01:17.351Z,99.90
2022-12-10T16:03:44.715Z,99.90
2022-12-10T16:06:14.288Z,1.00
2022-12-10T16:08:45.155Z,99.90
2022-12-10T16:11:20.811Z,99.90
2022-12-10T16:13:52.414Z,99.90
2022-12-10T16:16:19.799Z,99.90
2022-12-10T16:18:47.927Z,99.90
2022-12-10T16:21:14.940Z,99.90
2022-12-10T16:23:42.193Z,99.90
2022-12-10T16:26:21.063Z,99.90
2022-12-10T16:28:49.579Z,99.90
2022-12-10T16:31:19.624Z,99.90
2022-12-10T16:33:48.149Z,99.90
2022-12-10T16:36:15.054Z,99.90
2022-12-10T16:38:42.670Z,99.90
2022-12-10T16:41:20.480Z,99.90
2022-12-10T16:43:47.449Z,99.90
2022-12-10T16:46:15.002Z,99.90
2022-12-10T16:48:42.161Z,99.90
2022-12-10T16:51:19.174Z,99.90
2022-12-10T16:53:46.262Z,99.90
2022-12-10T16:56:17.153Z,99.90
2022-12-10T16:58:45.464Z,99.90
2022-12-10T17:01:34.360Z,99.90
2022-12-10T17:04:01.527Z,99.90
2022-12-10T17:06:29.578Z,99.90
2022-12-10T17:08:56.707Z,99.90
2022-12-10T17:11:51.428Z,99.90
2022-12-10T17:14:40.103Z,99.90
2022-12-10T17:17:08.424Z,99.90
2022-12-10T17:19:38.611Z,99.90
2022-12-10T17:22:06.221Z,99.90
2022-12-10T17:24:33.564Z,99.90
2022-12-10T17:27:08.702Z,99.90
2022-12-10T17:29:41.926Z,99.90
2022-12-10T17:32:14.225Z,99.90
2022-12-10T17:34:41.550Z,99.90
2022-12-10T17:37:13.556Z,99.90
2022-12-10T17:39:40.626Z,99.90
2022-12-10T17:42:08.792Z,99.90
2022-12-10T17:44:36.319Z,99.90
2022-12-10T17:47:13.830Z,99.90
2022-12-10T17:49:41.220Z,99.90
2022-12-10T17:52:10.268Z,99.90
2022-12-10T17:54:37.793Z,99.90
2022-12-10T17:57:23.566Z,99.90
2022-12-10T17:59:50.548Z,99.90
2022-12-10T18:02:17.738Z,99.90
2022-12-10T18:04:44.752Z,99.90
2022-12-10T18:07:17.425Z,99.90
2022-12-10T18:09:45.250Z,99.90
2022-12-10T18:12:12.755Z,99.90
2022-12-10T18:14:39.828Z,99.90
2022-12-10T18:17:14.972Z,99.90
2022-12-10T18:19:43.778Z,99.90
2022-12-10T18:22:13.235Z,99.90
2022-12-10T18:24:40.641Z,99.90
2022-12-10T18:27:09.397Z,99.90
2022-12-10T18:29:37.015Z,99.90
2022-12-10T18:32:04.158Z,99.90
2022-12-10T18:34:31.203Z,99.90
2022-12-10T18:36:58.229Z,99.90
2022-12-10T18:39:29.722Z,99.90
2022-12-10T18:41:56.996Z,99.90
2022-12-10T18:44:26.765Z,99.90
2022-12-10T18:46:55.756Z,99.90
2022-12-10T18:49:23.517Z,99.90
2022-12-10T18:51:51.853Z,99.90
2022-12-10T18:54:19.052Z,99.90
2022-12-10T18:57:03.291Z,99.90
2022-12-10T18:59:33.810Z,99.90
2022-12-10T19:02:00.824Z,99.90
2022-12-10T19:04:27.827Z,99.90
2022-12-10T19:06:54.772Z,99.90
2022-12-10T19:09:21.917Z,99.90
2022-12-10T19:11:51.947Z,99.90
2022-12-10T19:14:21.060Z,99.90
2022-12-10T19:16:48.156Z,99.90
2022-12-10T19:19:16.899Z,99.90
2022-12-10T19:21:46.140Z,99.90
2022-12-10T19:24:13.939Z,99.90
2022-12-10T19:26:43.404Z,99.90
2022-12-10T19:29:14.831Z,99.90
2022-12-10T19:31:42.907Z,99.90
2022-12-10T19:34:10.728Z,99.90
2022-12-10T19:36:37.851Z,99.90
2022-12-10T19:39:05.184Z,99.90
2022-12-10T19:41:32.415Z,99.90
2022-12-10T19:43:59.355Z,99.90
2022-12-10T19:46:27.482Z,99.90
2022-12-10T19:48:54.926Z,99.90
2022-12-10T19:51:25.064Z,99.90
2022-12-10T19:53:55.331Z,99.90
2022-12-10T19:56:33.861Z,99.90
2022-12-10T19:59:11.255Z,99.90
2022-12-10T20:01:42.644Z,99.90
2022-12-10T20:04:09.750Z,99.90
2022-12-10T20:06:40.175Z,99.90
2022-12-10T20:09:27.486Z,99.90
2022-12-10T20:11:55.036Z,99.90
2022-12-10T20:14:23.196Z,99.90
2022-12-10T20:16:51.761Z,99.90
2022-12-10T20:19:21.571Z,99.90
2022-12-10T20:21:48.856Z,99.90
2022-12-10T20:24:16.191Z,99.90
2022-12-10T20:26:45.642Z,99.90
2022-12-10T20:29:25.035Z,99.90
2022-12-10T20:31:54.751Z,99.90
2022-12-10T20:34:23.424Z,99.90
2022-12-10T20:36:51.334Z,99.90
2022-12-10T20:39:22.121Z,99.90
2022-12-10T20:41:50.577Z,99.90
2022-12-10T20:44:18.462Z,99.90
2022-12-10T20:46:46.248Z,99.90
2022-12-10T20:49:15.638Z,99.90
2022-12-10T20:51:42.790Z,99.90
2022-12-10T20:54:10.215Z,99.90
2022-12-10T20:56:37.302Z,99.90
2022-12-10T20:59:05.779Z,99.90
2022-12-10T21:01:33.036Z,99.90
2022-12-10T21:04:00.898Z,99.90
2022-12-10T21:06:30.060Z,99.90
2022-12-10T21:08:57.274Z,99.90
2022-12-10T21:11:32.878Z,99.90
2022-12-10T21:14:00.177Z,99.90
2022-12-10T21:16:27.468Z,99.90
2022-12-10T21:18:55.373Z,99.90
2022-12-10T21:21:26.860Z,99.90
2022-12-10T21:23:54.420Z,99.90
2022-12-10T21:26:22.094Z,99.90
2022-12-10T21:28:49.368Z,99.90
2022-12-10T21:31:22.633Z,99.90
2022-12-10T21:33:50.136Z,99.90
2022-12-10T21:36:19.759Z,99.90
2022-12-10T21:38:46.976Z,99.90
2022-12-10T21:41:44.188Z,99.90
2022-12-10T21:44:11.634Z,99.90
2022-12-10T21:46:39.769Z,99.90
2022-12-10T21:49:07.285Z,99.90
2022-12-10T21:51:39.500Z,99.90
2022-12-10T21:54:07.904Z,99.90
2022-12-10T21:56:35.339Z,99.90
2022-12-10T21:59:02.762Z,99.90
2022-12-10T22:01:29.734Z,99.90
2022-12-10T22:03:57.722Z,99.90
2022-12-10T22:06:29.582Z,99.90
2022-12-10T22:08:57.366Z,99.90
2022-12-10T22:11:24.358Z,99.90
2022-12-10T22:13:55.306Z,99.90
2022-12-10T22:16:22.732Z,99.90
2022-12-10T22:18:50.178Z,99.90
2022-12-10T22:21:23.393Z,99.90
2022-12-10T22:23:54.470Z,99.90
2022-12-10T22:26:22.964Z,99.90
2022-12-10T22:28:50.338Z,99.90
2022-12-10T22:31:18.050Z,99.90
2022-12-10T22:33:45.041Z,99.90
2022-12-10T22:36:11.935Z,99.90
2022-12-10T22:38:39.544Z,99.90
2022-12-10T22:41:07.034Z,99.90
2022-12-10T22:43:51.255Z,99.90
2022-12-10T22:46:19.734Z,99.90
2022-12-10T22:48:47.059Z,99.90
2022-12-10T22:51:14.229Z,99.90
2022-12-10T22:53:41.333Z,99.90
2022-12-10T22:56:09.502Z,99.90
2022-12-10T22:58:36.471Z,99.90
2022-12-10T23:01:03.779Z,99.90
2022-12-10T23:03:30.754Z,99.90
2022-12-10T23:05:58.710Z,99.90
2022-12-10T23:08:28.538Z,99.90
2022-12-10T23:10:55.451Z,99.90
2022-12-10T23:13:22.738Z,99.90
2022-12-10T23:15:52.034Z,99.90
2022-12-10T23:18:19.883Z,99.90
2022-12-10T23:20:49.921Z,99.90
2022-12-10T23:23:20.966Z,99.90
2022-12-10T23:25:48.879Z,99.90
2022-12-10T23:28:15.936Z,99.90
2022-12-10T23:30:43.020Z,99.90
2022-12-10T23:33:10.491Z,99.90
2022-12-10T23:35:41.755Z,99.90
2022-12-10T23:38:08.980Z,99.90
2022-12-10T23:40:35.856Z,99.90
2022-12-10T23:43:02.718Z,1.00
2022-12-10T23:45:29.757Z,1.00
2022-12-10T23:47:56.622Z,99.90
2022-12-10T23:50:23.498Z,99.90
2022-12-10T23:52:50.445Z,1.00
2022-12-10T23:55:17.488Z,40.60
2022-12-10T23:57:44.388Z,99.90
